createdAt,value
2023-05-18T00:00:55.716Z,10.27
2023-05-18T00:03:59.309Z,9.38
2023-05-18T00:07:05.571Z,9.70
2023-05-18T00:10:10.256Z,11.83
2023-05-18T00:13:13.671Z,9.07
2023-05-18T00:16:16.999Z,13.65
2023-05-18T00:19:24.234Z,9.50
2023-05-18T00:22:27.782Z,10.77
2023-05-18T00:25:31.235Z,9.97
2023-05-18T00:28:34.633Z,10.45
2023-05-18T00:31:39.419Z,10.63
2023-05-18T00:34:43.622Z,9.20
2023-05-18T00:37:46.816Z,10.57
2023-05-18T00:40:50.048Z,9.73
2023-05-18T00:43:54.219Z,10.35
2023-05-18T00:46:57.594Z,8.77
2023-05-18T00:50:01.473Z,7.95
2023-05-18T00:53:04.899Z,8.60
2023-05-18T00:56:08.735Z,9.75
2023-05-18T00:59:12.364Z,8.40
2023-05-18T01:02:15.972Z,8.93
2023-05-18T01:05:20.139Z,8.30
2023-05-18T01:08:27.173Z,12.37
2023-05-18T01:11:57.188Z,8.30
2023-05-18T01:15:13.385Z,7.82
2023-05-18T01:18:34.337Z,8.77
2023-05-18T01:21:58.518Z,7.40
2023-05-18T01:25:17.564Z,8.40
2023-05-18T01:28:29.596Z,8.43
2023-05-18T01:31:34.653Z,8.27
2023-05-18T01:34:39.130Z,8.52
2023-05-18T01:37:42.329Z,7.55
2023-05-18T01:40:58.770Z,8.90
2023-05-18T01:44:34.160Z,9.18
2023-05-18T01:47:39.435Z,9.43
2023-05-18T01:50:47.107Z,8.45
2023-05-18T01:54:03.095Z,8.55
2023-05-18T01:57:08.833Z,9.67
2023-05-18T02:00:14.224Z,11.43
2023-05-18T02:03:20.338Z,7.72
2023-05-18T02:06:23.715Z,9.18
2023-05-18T02:09:27.105Z,9.48
2023-05-18T02:12:30.576Z,9.63
2023-05-18T02:15:33.898Z,9.88
2023-05-18T02:18:37.329Z,8.55
2023-05-18T02:21:41.683Z,10.35
2023-05-18T02:24:46.326Z,9.02
2023-05-18T02:27:51.223Z,8.33
2023-05-18T02:30:54.537Z,9.98
2023-05-18T02:33:58.040Z,9.07
2023-05-18T02:37:04.040Z,9.57
2023-05-18T02:40:11.363Z,10.13
2023-05-18T02:43:16.162Z,8.70
2023-05-18T02:46:19.649Z,11.00
2023-05-18T02:49:23.001Z,8.82
2023-05-18T02:52:27.689Z,10.82
2023-05-18T02:55:31.508Z,9.57
2023-05-18T02:58:47.863Z,10.23
2023-05-18T03:01:56.497Z,9.10
2023-05-18T03:04:59.851Z,11.75
2023-05-18T03:08:03.738Z,11.15
2023-05-18T03:11:08.663Z,9.35
2023-05-18T03:14:12.189Z,11.27
2023-05-18T03:17:15.654Z,10.30
2023-05-18T03:20:19.969Z,10.07
2023-05-18T03:23:23.365Z,9.60
2023-05-18T03:26:30.913Z,10.48
2023-05-18T03:29:34.771Z,10.43
2023-05-18T03:32:41.631Z,10.30
2023-05-18T03:35:47.097Z,11.60
2023-05-18T03:38:51.892Z,11.43
2023-05-18T03:41:55.242Z,11.23
2023-05-18T03:44:59.005Z,11.17
2023-05-18T03:48:02.560Z,11.73
2023-05-18T03:51:06.736Z,11.82
2023-05-18T03:54:10.710Z,11.45
2023-05-18T03:57:13.939Z,11.15
2023-05-18T04:00:18.554Z,10.67
2023-05-18T04:03:25.082Z,10.13
2023-05-18T04:06:28.572Z,9.75
2023-05-18T04:09:32.539Z,9.68
2023-05-18T04:12:35.935Z,9.32
2023-05-18T04:15:39.185Z,9.50
2023-05-18T04:18:43.205Z,8.00
2023-05-18T04:21:47.479Z,8.40
2023-05-18T04:24:55.128Z,7.60
2023-05-18T04:27:58.773Z,8.27
2023-05-18T04:31:02.513Z,7.93
2023-05-18T04:34:07.020Z,7.93
2023-05-18T04:37:10.728Z,5.97
2023-05-18T04:40:17.010Z,6.45
2023-05-18T04:43:22.082Z,7.22
2023-05-18T04:46:25.578Z,6.60
2023-05-18T04:49:29.178Z,7.68
2023-05-18T04:52:37.044Z,5.38
2023-05-18T04:55:42.818Z,7.22
2023-05-18T04:58:49.051Z,5.80
2023-05-18T05:01:53.955Z,5.47
2023-05-18T05:04:57.326Z,6.50
2023-05-18T05:08:04.852Z,6.22
2023-05-18T05:11:08.366Z,6.18
2023-05-18T05:14:14.634Z,7.00
2023-05-18T05:17:24.358Z,5.50
2023-05-18T05:20:27.807Z,3.95
2023-05-18T05:23:31.157Z,5.10
2023-05-18T05:26:35.255Z,3.90
2023-05-18T05:29:38.545Z,4.68
2023-05-18T05:32:41.951Z,5.37
2023-05-18T05:35:45.661Z,5.23
2023-05-18T05:38:49.250Z,4.72
2023-05-18T05:41:52.660Z,4.57
2023-05-18T05:44:56.173Z,4.72
2023-05-18T05:48:00.667Z,5.73
2023-05-18T05:51:04.341Z,4.75
2023-05-18T05:54:10.789Z,5.97
2023-05-18T05:57:17.560Z,8.38
2023-05-18T06:00:21.763Z,10.73
2023-05-18T06:03:26.851Z,4.73
2023-05-18T06:06:31.759Z,4.93
2023-05-18T06:09:35.645Z,7.30
2023-05-18T06:12:39.039Z,5.70
2023-05-18T06:15:42.522Z,5.78
2023-05-18T06:18:46.183Z,8.10
2023-05-18T06:21:49.900Z,7.60
2023-05-18T06:24:53.755Z,6.88
2023-05-18T06:28:09.400Z,9.48
2023-05-18T06:31:22.782Z,6.47
2023-05-18T06:34:46.176Z,9.03
2023-05-18T06:37:51.458Z,5.78
2023-05-18T06:40:54.880Z,6.15
2023-05-18T06:44:00.487Z,5.05
2023-05-18T06:47:26.969Z,4.68
2023-05-18T06:50:30.437Z,7.47
2023-05-18T06:53:33.746Z,5.67
2023-05-18T06:56:37.179Z,6.50
2023-05-18T06:59:41.168Z,4.80
2023-05-18T07:02:48.252Z,3.42
2023-05-18T07:05:52.582Z,5.10
2023-05-18T07:08:56.392Z,5.17
2023-05-18T07:11:59.709Z,5.38
2023-05-18T07:15:04.562Z,6.00
2023-05-18T07:18:08.165Z,6.85
2023-05-18T07:21:11.994Z,7.17
2023-05-18T07:24:15.693Z,9.10
2023-05-18T07:27:19.132Z,5.63
2023-05-18T07:30:23.328Z,4.82
2023-05-18T07:33:26.710Z,6.47
2023-05-18T07:36:29.940Z,6.10
2023-05-18T07:39:33.327Z,6.63
2023-05-18T07:42:37.805Z,6.20
2023-05-18T07:45:41.181Z,6.07
2023-05-18T07:48:45.328Z,6.00
2023-05-18T07:51:48.779Z,5.80
2023-05-18T07:54:53.139Z,6.83
2023-05-18T07:57:56.582Z,5.43
2023-05-18T08:00:59.887Z,4.47
2023-05-18T08:04:03.850Z,4.70
2023-05-18T08:07:07.291Z,6.83
2023-05-18T08:10:11.550Z,5.13
2023-05-18T08:13:14.885Z,5.22
2023-05-18T08:16:18.420Z,5.28
2023-05-18T08:19:21.820Z,6.85
2023-05-18T08:22:25.256Z,9.33
2023-05-18T08:25:31.471Z,8.10
2023-05-18T08:28:34.954Z,7.65
2023-05-18T08:31:39.565Z,7.00
2023-05-18T08:34:43.794Z,5.68
2023-05-18T08:37:47.242Z,9.30
2023-05-18T08:40:54.201Z,9.63
2023-05-18T08:44:08.085Z,5.50
2023-05-18T08:47:12.520Z,5.93
2023-05-18T08:50:18.002Z,6.38
2023-05-18T08:53:24.079Z,5.50
2023-05-18T08:56:27.687Z,5.27
2023-05-18T08:59:33.505Z,9.40
2023-05-18T09:02:38.128Z,5.57
2023-05-18T09:05:42.572Z,5.78
2023-05-18T09:08:47.618Z,4.80
2023-05-18T09:11:52.123Z,10.77
2023-05-18T09:14:56.121Z,5.03
2023-05-18T09:17:59.504Z,5.28
2023-05-18T09:21:21.259Z,4.88
2023-05-18T09:24:25.044Z,5.90
2023-05-18T09:27:28.989Z,4.60
2023-05-18T09:30:43.520Z,5.53
2023-05-18T09:33:48.402Z,10.63
2023-05-18T09:36:57.365Z,12.00
2023-05-18T09:40:01.432Z,6.30
2023-05-18T09:43:08.174Z,4.53
2023-05-18T09:46:13.036Z,4.82
2023-05-18T09:49:23.324Z,4.70
2023-05-18T09:52:26.890Z,9.20
2023-05-18T09:55:30.524Z,6.67
2023-05-18T09:58:35.165Z,8.80
2023-05-18T10:01:55.305Z,5.13
2023-05-18T10:04:59.008Z,8.48
2023-05-18T10:08:02.496Z,6.13
2023-05-18T10:11:06.627Z,5.33
2023-05-18T10:14:14.143Z,10.50
2023-05-18T10:17:17.887Z,12.30
2023-05-18T10:20:24.484Z,13.63
2023-05-18T10:23:34.260Z,10.75
2023-05-18T10:26:40.061Z,11.87
2023-05-18T10:29:46.634Z,6.40
2023-05-18T10:32:51.528Z,16.95
2023-05-18T10:35:55.584Z,20.15
2023-05-18T10:39:03.014Z,10.65
2023-05-18T10:42:09.687Z,7.90
2023-05-18T10:45:14.253Z,15.63
2023-05-18T10:48:19.535Z,15.13
2023-05-18T10:51:24.275Z,11.80
2023-05-18T10:54:28.367Z,11.32
2023-05-18T11:01:11.927Z,9.73
2023-05-18T11:04:16.022Z,10.25
2023-05-18T11:07:21.767Z,14.88
2023-05-18T11:10:33.040Z,11.80
2023-05-18T11:13:38.760Z,13.57
2023-05-18T11:16:42.956Z,11.43
2023-05-18T11:20:08.074Z,13.95
2023-05-18T11:23:14.745Z,12.55
2023-05-18T11:26:18.232Z,12.82
2023-05-18T11:29:22.657Z,13.73
2023-05-18T11:32:31.241Z,13.30
2023-05-18T11:35:37.308Z,16.05
2023-05-18T11:39:02.637Z,11.40
2023-05-18T11:42:10.313Z,12.27
2023-05-18T11:45:14.146Z,10.47
2023-05-18T11:48:20.429Z,11.17
2023-05-18T11:51:26.554Z,13.82
2023-05-18T11:54:46.874Z,9.85
2023-05-18T11:57:53.031Z,11.18
2023-05-18T12:00:57.847Z,7.30
2023-05-18T12:04:01.369Z,5.47
2023-05-18T12:07:06.757Z,5.97
2023-05-18T12:10:17.756Z,4.88
2023-05-18T12:13:23.059Z,6.18
2023-05-18T12:16:26.983Z,6.93
2023-05-18T12:19:30.376Z,11.73
2023-05-18T12:22:33.701Z,9.95
2023-05-18T12:25:36.974Z,10.10
2023-05-18T12:28:40.686Z,7.25
2023-05-18T12:31:44.645Z,6.30
2023-05-18T12:34:48.010Z,10.93
2023-05-18T12:37:51.453Z,8.55
2023-05-18T12:40:57.118Z,8.15
2023-05-18T12:44:00.492Z,6.50
2023-05-18T12:47:03.986Z,7.90
2023-05-18T12:50:07.714Z,9.63
2023-05-18T12:53:11.067Z,5.80
2023-05-18T12:56:14.554Z,6.07
2023-05-18T12:59:19.780Z,14.75
2023-05-18T13:02:30.057Z,8.30
2023-05-18T13:05:33.532Z,8.47
2023-05-18T13:08:37.698Z,7.32
2023-05-18T13:11:41.524Z,8.07
2023-05-18T13:14:45.001Z,7.68
2023-05-18T13:18:03.118Z,5.80
2023-05-18T13:21:08.450Z,6.80
2023-05-18T13:24:11.838Z,6.90
2023-05-18T13:27:15.161Z,7.82
2023-05-18T13:30:18.526Z,6.95
2023-05-18T13:33:22.018Z,5.70
2023-05-18T13:36:26.163Z,5.73
2023-05-18T13:39:29.591Z,6.47
2023-05-18T13:42:33.924Z,6.72
2023-05-18T13:45:37.489Z,8.20
2023-05-18T13:48:40.908Z,9.27
2023-05-18T13:51:44.180Z,7.70
2023-05-18T13:54:48.800Z,8.02
2023-05-18T13:57:52.127Z,7.57
2023-05-18T14:00:56.722Z,8.05
2023-05-18T14:04:00.258Z,8.53
2023-05-18T14:07:04.255Z,7.53
2023-05-18T14:10:09.432Z,12.18
2023-05-18T14:13:12.716Z,7.85
2023-05-18T14:16:16.022Z,6.28
2023-05-18T14:19:19.455Z,7.87
2023-05-18T14:22:26.370Z,7.13
2023-05-18T14:25:30.288Z,7.95
2023-05-18T14:28:33.606Z,7.78
2023-05-18T14:31:37.061Z,9.25
2023-05-18T14:34:40.416Z,8.23
2023-05-18T14:37:43.874Z,8.73
2023-05-18T14:40:47.204Z,9.07
2023-05-18T14:43:51.236Z,7.43
2023-05-18T14:46:54.676Z,8.13
2023-05-18T14:49:57.986Z,9.00
2023-05-18T14:53:01.383Z,9.60
2023-05-18T14:56:08.549Z,7.55
2023-05-18T14:59:12.020Z,8.73
2023-05-18T15:02:15.697Z,9.98
2023-05-18T15:05:19.080Z,8.30
2023-05-18T15:08:22.648Z,8.30
2023-05-18T15:11:36.284Z,9.65
2023-05-18T15:14:39.629Z,7.45
2023-05-18T15:17:43.151Z,8.70
2023-05-18T15:20:46.913Z,8.43
2023-05-18T15:23:50.272Z,7.80
2023-05-18T15:26:53.556Z,8.48
2023-05-18T15:29:56.911Z,9.38
2023-05-18T15:33:04.070Z,8.73
2023-05-18T15:36:07.542Z,9.10
2023-05-18T15:39:10.936Z,7.30
2023-05-18T15:42:14.211Z,7.80
2023-05-18T15:45:17.523Z,6.63
2023-05-18T15:48:20.742Z,7.68
2023-05-18T15:51:24.205Z,6.43
2023-05-18T15:54:27.483Z,6.23
2023-05-18T15:57:30.857Z,10.43
2023-05-18T16:00:34.091Z,7.50
2023-05-18T16:03:37.612Z,7.93
2023-05-18T16:06:41.190Z,7.67
2023-05-18T16:09:44.524Z,9.03
2023-05-18T16:12:47.819Z,7.57
2023-05-18T16:15:51.219Z,9.00
2023-05-18T16:18:54.490Z,8.95
2023-05-18T16:21:57.719Z,9.83
2023-05-18T16:25:00.984Z,8.83
2023-05-18T16:28:04.507Z,7.72
2023-05-18T16:31:09.290Z,9.48
2023-05-18T16:34:13.354Z,7.80
2023-05-18T16:37:16.583Z,8.13
2023-05-18T16:40:19.913Z,7.70
2023-05-18T16:43:23.259Z,7.10
2023-05-18T16:46:26.605Z,8.05
2023-05-18T16:49:30.570Z,7.15
2023-05-18T16:52:33.899Z,8.07
2023-05-18T16:55:37.155Z,10.67
2023-05-18T16:58:40.517Z,8.50
2023-05-18T17:01:44.488Z,7.78
2023-05-18T17:04:49.870Z,8.55
2023-05-18T17:07:53.786Z,8.33
2023-05-18T17:10:57.784Z,7.90
2023-05-18T17:14:01.638Z,8.48
2023-05-18T17:17:06.258Z,8.10
2023-05-18T17:20:11.157Z,10.30
2023-05-18T17:23:18.623Z,12.93
2023-05-18T17:26:22.347Z,8.23
2023-05-18T17:29:25.650Z,9.60
2023-05-18T17:32:28.982Z,8.98
2023-05-18T17:35:32.248Z,9.57
2023-05-18T17:38:35.535Z,8.67
2023-05-18T17:41:38.768Z,9.93
2023-05-18T17:44:42.128Z,8.73
2023-05-18T17:47:46.346Z,10.05
2023-05-18T17:50:49.809Z,9.70
2023-05-18T17:53:53.142Z,13.43
2023-05-18T17:56:59.083Z,7.30
2023-05-18T18:00:02.478Z,10.68
2023-05-18T18:03:14.609Z,10.90
2023-05-18T18:06:22.437Z,10.43
2023-05-18T18:09:25.918Z,8.20
2023-05-18T18:12:29.134Z,9.97
2023-05-18T18:15:32.420Z,10.20
2023-05-18T18:18:39.189Z,9.07
2023-05-18T18:21:42.623Z,9.05
2023-05-18T18:24:45.885Z,13.33
2023-05-18T18:27:49.198Z,8.40
2023-05-18T18:30:52.532Z,8.95
2023-05-18T18:33:56.198Z,9.88
2023-05-18T18:36:59.788Z,10.10
2023-05-18T18:40:04.665Z,11.47
2023-05-18T18:43:08.177Z,9.87
2023-05-18T18:46:11.846Z,9.38
2023-05-18T18:49:15.564Z,9.88
2023-05-18T18:52:18.837Z,9.18
2023-05-18T18:55:25.974Z,9.00
2023-05-18T18:58:29.545Z,8.60
2023-05-18T19:01:32.858Z,8.32
2023-05-18T19:04:36.313Z,7.75
2023-05-18T19:07:39.820Z,8.52
2023-05-18T19:10:44.479Z,7.43
2023-05-18T19:13:47.755Z,8.57
2023-05-18T19:16:51.111Z,10.32
2023-05-18T19:19:54.539Z,10.80
2023-05-18T19:22:58.086Z,8.95
2023-05-18T19:26:02.263Z,9.10
2023-05-18T19:29:05.743Z,13.57
2023-05-18T19:32:09.077Z,9.68
2023-05-18T19:35:12.367Z,10.80
2023-05-18T19:38:15.814Z,8.35
2023-05-18T19:41:20.028Z,14.10
2023-05-18T19:44:24.135Z,10.50
2023-05-18T19:47:27.749Z,11.02
2023-05-18T19:50:31.329Z,9.82
2023-05-18T19:53:34.666Z,12.60
2023-05-18T19:56:37.915Z,9.40
2023-05-18T19:59:42.815Z,11.23
2023-05-18T20:02:46.182Z,12.27
2023-05-18T20:05:50.112Z,10.43
2023-05-18T20:08:53.304Z,9.77
2023-05-18T20:11:56.736Z,10.43
2023-05-18T20:14:59.982Z,9.80
2023-05-18T20:18:06.514Z,11.15
2023-05-18T20:21:10.493Z,10.55
2023-05-18T20:24:13.881Z,10.30
2023-05-18T20:27:17.183Z,9.87
2023-05-18T20:30:20.463Z,9.03
2023-05-18T20:33:23.757Z,12.95
2023-05-18T20:36:27.150Z,9.35
2023-05-18T20:39:30.563Z,9.52
2023-05-18T20:42:42.845Z,10.73
2023-05-18T20:45:47.339Z,11.37
2023-05-18T20:48:52.644Z,9.15
2023-05-18T20:51:56.303Z,10.23
2023-05-18T20:54:59.545Z,9.50
2023-05-18T20:58:02.775Z,8.33
2023-05-18T21:01:07.094Z,9.10
2023-05-18T21:04:13.663Z,8.75
2023-05-18T21:07:18.030Z,10.30
2023-05-18T21:10:23.858Z,12.63
2023-05-18T21:13:27.188Z,13.40
2023-05-18T21:16:30.649Z,11.88
2023-05-18T21:19:33.930Z,14.85
2023-05-18T21:22:37.192Z,12.20
2023-05-18T21:25:40.685Z,14.18
2023-05-18T21:28:43.999Z,12.77
2023-05-18T21:31:48.736Z,9.10
2023-05-18T21:34:52.164Z,10.80
2023-05-18T21:37:55.518Z,10.50
2023-05-18T21:40:58.801Z,11.82
2023-05-18T21:44:02.181Z,9.00
2023-05-18T21:47:05.559Z,10.93
2023-05-18T21:50:09.198Z,10.85
2023-05-18T21:53:12.651Z,10.70
2023-05-18T21:56:15.986Z,10.05
2023-05-18T21:59:19.194Z,11.30
2023-05-18T22:02:22.760Z,10.57
2023-05-18T22:05:26.377Z,12.35
2023-05-18T22:08:30.626Z,10.55
2023-05-18T22:11:33.805Z,9.88
2023-05-18T22:14:37.104Z,9.60
2023-05-18T22:17:40.643Z,11.87
2023-05-18T22:20:44.689Z,12.18
2023-05-18T22:23:47.918Z,11.13
2023-05-18T22:26:51.226Z,12.20
2023-05-18T22:29:54.434Z,11.37
2023-05-18T22:32:58.630Z,12.03
2023-05-18T22:36:02.043Z,11.63
2023-05-18T22:39:05.530Z,11.07
2023-05-18T22:42:08.801Z,11.43
2023-05-18T22:45:12.323Z,10.00
2023-05-18T22:48:15.557Z,11.13
2023-05-18T22:51:19.313Z,10.07
2023-05-18T22:54:22.681Z,11.02
2023-05-18T22:57:25.930Z,10.38
2023-05-18T23:00:29.169Z,11.77
2023-05-18T23:03:32.488Z,11.40
2023-05-18T23:06:35.819Z,9.52
2023-05-18T23:09:39.852Z,13.38
2023-05-18T23:12:45.632Z,9.90
2023-05-18T23:15:48.951Z,9.37
2023-05-18T23:18:53.767Z,10.93
2023-05-18T23:21:57.192Z,10.02
2023-05-18T23:25:01.094Z,11.95
2023-05-18T23:28:04.439Z,10.10
2023-05-18T23:31:07.704Z,8.80
2023-05-18T23:34:11.331Z,9.00
2023-05-18T23:37:18.619Z,10.07
2023-05-18T23:40:23.175Z,9.90
2023-05-18T23:43:26.691Z,9.55
2023-05-18T23:46:31.723Z,9.83
2023-05-18T23:49:35.183Z,9.93
2023-05-18T23:52:41.235Z,8.90
2023-05-18T23:55:45.803Z,7.72
2023-05-18T23:58:49.333Z,9.32
